wbober

Members
  • Content Count

    7
  • Joined

  • Last visited

Community Reputation

0 Neutral

Flight Sim Profile

  • Commercial Member
    No
  • Online Flight Organization Membership
    none
  • Virtual Airlines
    No
  1. Hi Jim, Thanks for fast answer.It looks so as on photo.Shows difference amongMETAR and TAF.Problems are in such situation additional with displacement the ASX interface on second monitor( I have two monitors).I hope, that you will invent something ;)Best regardsWojtek
  2. Hi,I have a problem with weather download.More or less that third time I receive real weather(METAR).Mostly I receive unfortunately:302350Z 18004KT CAVOK 07/03 Q1023 A 3022 RMK INTERPOLATEDDoes not have meaning or for example EPWA,or EDDT EGKK.Same METAR continuously?! I must try and try to get the right weather. The reinstall of ASX and SP1 doesn`t change anything.Let me know if you have any idea what is going onWojtek XP,ASUS P5GPL-X,PIV 3,2GHz,1,5 GB RAM,RX1650 PRO,Logitech Extreme 3DPro